Nearby METAR Reports

 

KFIN - Palm Coast, Florida, USA
Distance from station: ENE 9mi, 15km
Updated: Tue, 20-Oct-2020 9:55pm EDT
Mostly cloudy
Mostly cloudy
 Wind from NE
Wind: NE 7 mph , 11 km/h
Temperature: 77°F , 25°C
Dew Point: 72°F , 22°C
Humidity: 83%
Barometer: 30.04 inHg , 1017.3 hPa
Clouds: Mostly cloudy
Visibility: 10 miles , 16 km
Cloud details: Mostly cloudy 2600 ft
Mostly cloudy 3900 ft
Mostly cloudy 4900 ft
2020/10/21 01:55 KFIN 210155Z AUTO 05006KT 10SM BKN026 BKN039 BKN049 25/22 A3004 RMK AO2 T02500218
KOMN - Ormond Beach Vor, Florida, USA
Distance from station: ESE 17mi, 27km
Updated: Tue, 20-Oct-2020 6:50pm EDT
NOT Current
Mist, Partly cloudy
Mist, Partly cloudy
 Wind from ENE
Wind: ENE 9 mph , 15 km/h
Temperature: 79°F , 26°C
Dew Point: 72°F , 22°C
Humidity: 79%
Barometer: 30.02 inHg , 1016.6 hPa
Summary: Mist
Clouds: Partly cloudy
Visibility: 5 miles , 8 km
Cloud details: Partly cloudy 5000 ft
2020/10/20 22:50 KOMN 202250Z 07008KT 5SM BR SCT050 26/22 A3002 RMK LAST
 
KDAB - Daytona Beach, Florida, USA
Distance from station: SE 24mi, 39km
Updated: Tue, 20-Oct-2020 9:53pm EDT
Mostly cloudy
Mostly cloudy
 Wind from ENE
Wind: ENE 12 mph , 19 km/h
Temperature: 79°F , 26°C
Dew Point: 73°F , 23°C
Humidity: 84%
Barometer: 30.03 inHg , 1016.9 hPa
Clouds: Mostly cloudy
Visibility: 10 miles , 16 km
Cloud details: Few Clouds 2700 ft
Mostly cloudy 20000 ft
2020/10/21 01:53 KDAB 210153Z 07010KT 10SM FEW027 BKN200 26/23 A3003 RMK AO2 SLP168 T02610233
KDED - Deland, Florida, USA
Distance from station: S 26mi, 41km
Updated: Tue, 20-Oct-2020 9:50pm EDT
Clear
Clear
 Wind from NNE
Wind: NNE 5 mph , 7 km/h
Temperature: 75°F , 24°C
Dew Point: 72°F , 22°C
Humidity: 89%
Barometer: 30.04 inHg , 1017.3 hPa
Clouds: Clear
Visibility: 10 miles , 16 km
2020/10/21 01:50 KDED 210150Z AUTO 02004KT 10SM CLR 24/22 A3004 RMK AO2 T02390219
 
KEVB - New Smyrna Beach, Florida, USA
Distance from station: SE 36mi, 58km
Updated: Tue, 20-Oct-2020 9:50pm EDT
Partly cloudy
Partly cloudy
 
Clouds: Partly cloudy
Visibility: 8 miles , 13 km
Cloud details: Partly cloudy 1800 ft
2020/10/21 01:50 KEVB 210150Z 8SM SCT018 RMK AWOS OTS. LAST
KSGJ - St Augustine, Florida, USA
Distance from station: N 37mi, 60km
Updated: Tue, 20-Oct-2020 9:56pm EDT
Few Clouds
Few Clouds
 Wind from ENE
Wind: ENE 14 mph , 22 km/h
Temperature: 79°F , 26°C
Dew Point: 73°F , 23°C
Humidity: 84%
Barometer: 30.07 inHg , 1018.3 hPa
Clouds: Few Clouds
Visibility: 10 miles , 16 km
Cloud details: Few Clouds 7000 ft
2020/10/21 01:56 KSGJ 210156Z AUTO 07012KT 10SM FEW070 26/23 A3007 RMK AO2 SLP180 T02560228 $
 
KSFB - Sanford/Orlando, Florida, USA
Distance from station: S 47mi, 75km
Updated: Tue, 20-Oct-2020 9:53pm EDT
Clear
Clear
 Wind from NE
Wind: NE 6 mph , 9 km/h
Temperature: 75°F , 24°C
Dew Point: 72°F , 22°C
Humidity: 89%
Barometer: 30.02 inHg , 1016.6 hPa
Clouds: Clear
Visibility: 10 miles , 16 km
2020/10/21 01:53 KSFB 210153Z 04005KT 10SM CLR 24/22 A3002 RMK AO2 SLP164 T02440217
KVVG - The Villages, Florida, USA
Distance from station: SW 50mi, 80km
Updated: Wed, 14-Feb-2018 2:10pm EST
NOT Current

 Wind from calm
Wind: Calm
Temperature: 73°F , 23°C
Dew Point: 66°F , 19°C
Humidity: 78%
Barometer: 30.29 inHg , 1025.7 hPa
Visibility: 10 miles , 16 km
2018/02/14 19:10 KVVG 141910Z AUTO 00000KT 10SM 23/19 A3029 RMK A01